Time;durP1;ratioP1;P1;durP2;ratioP2;P2;SDS_P1;SDS_P2;PMS_P1;PMS_P2;Temp;Humidity;BMP_temperature;BMP_pressure;BME280_temperature;BME280_humidity;BME280_pressure;Samples;Min_cycle;Max_cycle;Signal;HPM_P1;HPM_P2
2022/05/04 00:00:13;;;;;;;15.70;3.42;;;;;;;;;;5020240;28;21807;-60
2022/05/04 00:02:39;;;;;;;12.85;3.33;;;;;;;;;;5018983;28;20042;-60
2022/05/04 00:05:06;;;;;;;7.47;3.03;;;;;;;;;;5036914;28;20040;-61
2022/05/04 00:07:32;;;;;;;8.98;2.95;;;;;;;;;;5009971;28;20049;-61
2022/05/04 00:09:59;;;;;;;10.95;2.58;;;;;;;;;;5038322;28;20494;-60
2022/05/04 00:12:25;;;;;;;15.05;3.17;;;;;;;;;;5018370;28;20124;-60
2022/05/04 00:14:51;;;;;;;14.13;2.95;;;;;;;;;;5039960;28;20136;-60
2022/05/04 00:17:17;;;;;;;9.38;2.92;;;;;;;;;;5037152;28;20044;-60
2022/05/04 00:19:43;;;;;;;9.75;2.63;;;;;;;;;;5027955;28;20049;-61
2022/05/04 00:22:10;;;;;;;12.23;2.92;;;;;;;;;;5034827;28;20037;-60
2022/05/04 00:24:36;;;;;;;8.43;2.75;;;;;;;;;;5011411;28;20123;-64
2022/05/04 00:27:02;;;;;;;12.13;4.05;;;;;;;;;;5024982;28;20045;-64
2022/05/04 00:29:28;;;;;;;9.45;2.83;;;;;;;;;;5040359;28;20045;-64
2022/05/04 00:31:54;;;;;;;8.75;3.28;;;;;;;;;;5019455;28;20509;-64
2022/05/04 00:34:20;;;;;;;10.77;3.17;;;;;;;;;;5017370;28;20045;-64
2022/05/04 00:36:46;;;;;;;8.70;3.08;;;;;;;;;;5040674;28;20044;-64
2022/05/04 00:39:12;;;;;;;15.55;3.30;;;;;;;;;;5018045;28;20081;-64
2022/05/04 00:41:38;;;;;;;11.05;3.20;;;;;;;;;;5018349;28;20049;-64
2022/05/04 00:44:04;;;;;;;9.65;3.03;;;;;;;;;;5027625;28;20045;-64
2022/05/04 00:46:30;;;;;;;11.80;2.92;;;;;;;;;;5034147;28;20119;-64
2022/05/04 00:48:56;;;;;;;8.20;3.13;;;;;;;;;;5023546;28;20045;-65
2022/05/04 00:51:22;;;;;;;10.50;2.95;;;;;;;;;;5040954;28;20037;-65
2022/05/04 00:53:49;;;;;;;11.88;3.40;;;;;;;;;;5039047;28;20037;-64
2022/05/04 00:56:15;;;;;;;6.93;2.80;;;;;;;;;;5019494;28;20076;-64
2022/05/04 00:58:56;;;;;;;8.43;3.05;;;;;;;;;;5031750;28;20045;-65
2022/05/04 01:01:24;;;;;;;11.88;3.25;;;;;;;;;;5034951;28;20041;-65
2022/05/04 01:03:50;;;;;;;9.60;3.15;;;;;;;;;;5035700;28;20080;-64
2022/05/04 01:06:17;;;;;;;12.10;3.22;;;;;;;;;;5033798;28;20370;-64
2022/05/04 01:08:43;;;;;;;13.77;3.42;;;;;;;;;;5033765;28;20044;-64
2022/05/04 01:11:09;;;;;;;13.32;3.20;;;;;;;;;;5032754;28;20037;-64
2022/05/04 01:13:35;;;;;;;14.65;4.03;;;;;;;;;;5011978;28;20640;-64
2022/05/04 01:16:01;;;;;;;13.07;3.47;;;;;;;;;;5022540;28;20045;-64
2022/05/04 01:18:27;;;;;;;9.70;2.95;;;;;;;;;;5024360;28;20056;-64
2022/05/04 01:20:53;;;;;;;15.27;3.35;;;;;;;;;;5028737;28;20198;-64
2022/05/04 01:23:19;;;;;;;6.63;3.00;;;;;;;;;;5032813;28;20045;-64
2022/05/04 01:25:46;;;;;;;10.70;3.60;;;;;;;;;;5040469;28;20037;-64
2022/05/04 01:28:12;;;;;;;12.75;3.65;;;;;;;;;;5021478;28;20045;-65
2022/05/04 01:30:39;;;;;;;12.95;4.10;;;;;;;;;;5028156;28;20041;-64
2022/05/04 01:33:06;;;;;;;14.85;3.90;;;;;;;;;;5037226;28;20485;-65
2022/05/04 01:35:32;;;;;;;10.25;3.47;;;;;;;;;;5036449;28;20064;-64
2022/05/04 01:37:58;;;;;;;12.65;3.80;;;;;;;;;;5019170;28;20124;-65
2022/05/04 01:40:24;;;;;;;11.80;3.78;;;;;;;;;;5038835;28;20128;-64
2022/05/04 01:42:50;;;;;;;6.95;3.03;;;;;;;;;;5035942;28;20045;-64
2022/05/04 01:45:16;;;;;;;12.00;3.50;;;;;;;;;;5019018;28;20061;-64
2022/05/04 01:47:47;;;;;;;11.05;3.20;;;;;;;;;;5019716;28;20048;-64
2022/05/04 01:50:13;;;;;;;8.95;3.28;;;;;;;;;;5043166;28;20041;-65
2022/05/04 01:52:39;;;;;;;14.52;3.08;;;;;;;;;;5043441;28;20079;-65
2022/05/04 01:55:05;;;;;;;9.48;2.97;;;;;;;;;;5040439;28;20041;-65
2022/05/04 01:57:32;;;;;;;13.35;3.15;;;;;;;;;;5040498;28;20044;-65
2022/05/04 01:59:58;;;;;;;11.57;3.25;;;;;;;;;;5023421;28;20103;-61
2022/05/04 02:02:26;;;;;;;10.35;3.25;;;;;;;;;;5025612;28;20140;-62
2022/05/04 02:04:52;;;;;;;8.48;2.88;;;;;;;;;;5020333;28;20102;-61
2022/05/04 02:07:18;;;;;;;11.32;3.13;;;;;;;;;;5036495;28;20037;-62
2022/05/04 02:09:45;;;;;;;9.00;2.83;;;;;;;;;;5038824;28;20124;-61
2022/05/04 02:12:12;;;;;;;11.10;3.17;;;;;;;;;;5041579;28;20045;-61
2022/05/04 02:14:38;;;;;;;10.85;3.30;;;;;;;;;;5024880;28;20100;-61
2022/05/04 02:17:05;;;;;;;9.93;3.53;;;;;;;;;;5039862;28;20135;-61
2022/05/04 02:19:31;;;;;;;10.25;3.00;;;;;;;;;;5043061;28;20124;-62
2022/05/04 02:21:57;;;;;;;9.63;3.33;;;;;;;;;;5038373;28;20103;-61
2022/05/04 02:24:23;;;;;;;8.05;2.90;;;;;;;;;;5043743;28;20041;-61
2022/05/04 02:26:49;;;;;;;9.23;2.97;;;;;;;;;;5035034;28;20075;-61
2022/05/04 02:29:15;;;;;;;10.32;3.30;;;;;;;;;;5046562;28;20689;-61
2022/05/04 02:31:41;;;;;;;6.57;3.10;;;;;;;;;;5026915;28;20147;-62
2022/05/04 02:34:07;;;;;;;10.05;3.33;;;;;;;;;;5042109;28;20042;-61
2022/05/04 02:39:18;;;;;;;9.43;2.90;;;;;;;;;;5020373;28;20049;-61
2022/05/04 02:41:45;;;;;;;10.18;3.38;;;;;;;;;;5033040;28;20044;-62
2022/05/04 02:44:11;;;;;;;13.32;3.33;;;;;;;;;;5042665;28;20075;-61
2022/05/04 02:46:37;;;;;;;9.75;3.45;;;;;;;;;;5037702;28;20056;-61
2022/05/04 02:49:03;;;;;;;13.02;3.85;;;;;;;;;;5018368;28;20045;-61
2022/05/04 02:51:29;;;;;;;11.60;3.97;;;;;;;;;;5044434;28;20186;-61
2022/05/04 02:53:55;;;;;;;10.23;3.05;;;;;;;;;;5017701;28;20370;-61
2022/05/04 02:56:21;;;;;;;13.10;3.40;;;;;;;;;;5043513;28;20055;-61
2022/05/04 02:58:51;;;;;;;13.20;3.38;;;;;;;;;;5027387;28;20077;-61
2022/05/04 03:04:07;;;;;;;12.60;3.47;;;;;;;;;;5020612;28;20045;-61
2022/05/04 03:06:34;;;;;;;13.27;3.63;;;;;;;;;;5040494;28;20076;-62
2022/05/04 03:09:00;;;;;;;11.63;3.15;;;;;;;;;;5048632;28;20037;-61
2022/05/04 03:14:11;;;;;;;13.95;3.90;;;;;;;;;;5041820;28;20499;-61
2022/05/04 03:16:39;;;;;;;10.90;3.45;;;;;;;;;;5025248;28;20041;-61
2022/05/04 03:19:05;;;;;;;11.73;3.58;;;;;;;;;;5040838;28;20057;-61
2022/05/04 03:21:32;;;;;;;12.13;3.38;;;;;;;;;;5021559;28;20048;-62
2022/05/04 03:23:58;;;;;;;10.80;3.38;;;;;;;;;;5038226;28;20107;-62
2022/05/04 03:26:24;;;;;;;13.85;3.30;;;;;;;;;;5037404;28;20045;-62
2022/05/04 03:28:50;;;;;;;9.30;3.75;;;;;;;;;;5038588;28;20111;-62
2022/05/04 03:31:17;;;;;;;9.73;3.10;;;;;;;;;;5040117;28;20489;-61
2022/05/04 03:33:43;;;;;;;10.65;3.22;;;;;;;;;;5018730;28;20535;-62
2022/05/04 03:36:09;;;;;;;13.00;3.05;;;;;;;;;;5023333;28;20405;-62
2022/05/04 03:38:35;;;;;;;10.00;3.67;;;;;;;;;;5023908;28;20049;-61
2022/05/04 03:41:01;;;;;;;7.63;3.22;;;;;;;;;;5017135;28;20132;-61
2022/05/04 03:43:27;;;;;;;13.23;3.88;;;;;;;;;;5039668;28;20056;-61
2022/05/04 03:45:54;;;;;;;13.75;3.50;;;;;;;;;;5026458;28;20046;-61
2022/05/04 03:48:20;;;;;;;13.85;4.28;;;;;;;;;;5019319;28;20160;-61
2022/05/04 03:50:46;;;;;;;12.98;4.43;;;;;;;;;;5034042;28;20120;-61
2022/05/04 03:53:13;;;;;;;12.75;3.78;;;;;;;;;;5037703;28;20099;-61
2022/05/04 03:55:39;;;;;;;10.98;3.67;;;;;;;;;;5036516;28;20045;-61
2022/05/04 03:58:05;;;;;;;15.50;4.18;;;;;;;;;;5041836;28;20044;-62
2022/05/04 04:00:31;;;;;;;13.55;3.55;;;;;;;;;;5033081;28;20512;-61
2022/05/04 04:02:57;;;;;;;11.02;3.53;;;;;;;;;;5044506;28;20048;-61
2022/05/04 04:05:23;;;;;;;13.10;4.00;;;;;;;;;;5039502;28;20037;-60
2022/05/04 04:07:50;;;;;;;13.50;3.38;;;;;;;;;;5041580;28;20029;-61
2022/05/04 04:10:16;;;;;;;10.75;3.75;;;;;;;;;;5014741;28;20067;-61
2022/05/04 04:12:42;;;;;;;11.98;3.60;;;;;;;;;;5020979;28;20037;-62
2022/05/04 04:15:08;;;;;;;12.85;3.92;;;;;;;;;;5019460;28;20057;-61
2022/05/04 04:17:34;;;;;;;8.82;3.08;;;;;;;;;;5040348;28;20048;-61
2022/05/04 04:22:45;;;;;;;13.15;3.72;;;;;;;;;;5015091;28;20452;-61
2022/05/04 04:25:11;;;;;;;10.20;3.20;;;;;;;;;;5037421;28;20502;-61
2022/05/04 04:27:37;;;;;;;9.82;3.05;;;;;;;;;;5020211;28;20041;-61
2022/05/04 04:30:03;;;;;;;9.77;3.45;;;;;;;;;;5034945;28;20037;-61
2022/05/04 04:32:29;;;;;;;9.98;3.40;;;;;;;;;;5037069;28;20132;-61
2022/05/04 04:34:55;;;;;;;11.38;3.80;;;;;;;;;;5016497;28;20041;-61
2022/05/04 04:37:21;;;;;;;12.55;3.95;;;;;;;;;;4997617;28;20054;-61
2022/05/04 04:39:47;;;;;;;12.65;3.60;;;;;;;;;;4998325;28;20037;-61
2022/05/04 04:42:14;;;;;;;17.95;4.07;;;;;;;;;;5026330;28;20112;-61
2022/05/04 04:44:40;;;;;;;11.63;3.90;;;;;;;;;;5014351;28;20046;-61
2022/05/04 04:47:06;;;;;;;8.52;3.63;;;;;;;;;;5017311;28;20040;-61
2022/05/04 04:49:32;;;;;;;12.02;3.50;;;;;;;;;;5024527;28;20473;-61
2022/05/04 04:51:58;;;;;;;11.93;3.47;;;;;;;;;;5035283;28;20511;-61
2022/05/04 04:54:24;;;;;;;10.10;3.60;;;;;;;;;;5003852;28;20088;-61
2022/05/04 04:56:50;;;;;;;13.38;4.03;;;;;;;;;;5039099;28;20073;-61
2022/05/04 04:59:16;;;;;;;14.52;5.07;;;;;;;;;;5022290;28;20059;-61
2022/05/04 05:01:42;;;;;;;15.82;5.40;;;;;;;;;;5036494;28;20096;-61
2022/05/04 05:04:08;;;;;;;15.57;6.10;;;;;;;;;;5017372;28;20098;-61
2022/05/04 05:06:34;;;;;;;17.33;6.18;;;;;;;;;;5017471;28;20065;-61
2022/05/04 05:09:00;;;;;;;16.08;5.47;;;;;;;;;;5035341;28;20044;-61
2022/05/04 05:11:26;;;;;;;14.07;4.80;;;;;;;;;;5038191;28;20078;-61
2022/05/04 05:16:37;;;;;;;10.77;4.28;;;;;;;;;;5019987;28;20060;-61
2022/05/04 05:19:03;;;;;;;10.35;3.90;;;;;;;;;;5048895;28;20132;-61
2022/05/04 05:21:29;;;;;;;13.73;4.22;;;;;;;;;;5043347;28;20046;-61
2022/05/04 05:23:55;;;;;;;13.32;3.65;;;;;;;;;;5044813;28;20041;-61
2022/05/04 05:26:21;;;;;;;17.63;3.50;;;;;;;;;;5020636;28;20039;-61
2022/05/04 05:28:47;;;;;;;9.90;2.88;;;;;;;;;;5021217;28;20049;-61
2022/05/04 05:31:13;;;;;;;11.48;3.13;;;;;;;;;;5042444;28;20044;-64
2022/05/04 05:33:40;;;;;;;11.02;3.20;;;;;;;;;;5045082;28;20044;-65
2022/05/04 05:36:07;;;;;;;9.85;2.78;;;;;;;;;;5019182;28;20056;-65
2022/05/04 05:38:33;;;;;;;10.82;3.70;;;;;;;;;;5041328;28;20045;-65
2022/05/04 05:41:01;;;;;;;13.68;2.90;;;;;;;;;;5023344;28;20559;-65
2022/05/04 05:43:28;;;;;;;8.23;2.70;;;;;;;;;;5038968;28;20045;-65
2022/05/04 05:45:54;;;;;;;14.18;3.00;;;;;;;;;;5039564;28;21608;-65
2022/05/04 05:48:20;;;;;;;8.75;3.20;;;;;;;;;;5028155;28;20041;-65
2022/05/04 05:50:47;;;;;;;8.60;2.85;;;;;;;;;;5028925;28;20052;-65
2022/05/04 05:53:17;;;;;;;13.30;3.88;;;;;;;;;;5022370;28;20051;-65
2022/05/04 05:55:43;;;;;;;11.43;3.13;;;;;;;;;;5042966;28;20164;-65
2022/05/04 05:58:12;;;;;;;9.05;3.03;;;;;;;;;;5039991;28;20037;-65
2022/05/04 06:00:38;;;;;;;16.73;3.20;;;;;;;;;;5035320;28;20554;-65
2022/05/04 06:03:04;;;;;;;9.80;3.17;;;;;;;;;;5039750;28;20049;-65
2022/05/04 06:05:30;;;;;;;11.60;3.22;;;;;;;;;;5027925;28;20056;-65
2022/05/04 06:07:56;;;;;;;11.10;3.35;;;;;;;;;;5024930;28;20041;-65
2022/05/04 06:10:22;;;;;;;9.73;3.20;;;;;;;;;;5044518;28;20045;-65
2022/05/04 06:12:48;;;;;;;12.13;3.78;;;;;;;;;;5036463;28;20041;-65
2022/05/04 06:15:17;;;;;;;11.32;3.28;;;;;;;;;;5045297;28;20046;-65
2022/05/04 06:17:46;;;;;;;11.35;3.53;;;;;;;;;;5041179;28;20037;-65
2022/05/04 06:20:12;;;;;;;10.27;3.42;;;;;;;;;;5037615;28;20049;-65
2022/05/04 06:22:38;;;;;;;13.77;3.85;;;;;;;;;;5040418;28;20042;-65
2022/05/04 06:25:05;;;;;;;9.90;3.85;;;;;;;;;;5037890;28;20029;-65
2022/05/04 06:27:32;;;;;;;11.32;3.10;;;;;;;;;;5017821;28;20029;-65
2022/05/04 06:35:28;;;;;;;13.02;3.40;;;;;;;;;;5035917;28;20084;-65
2022/05/04 06:37:54;;;;;;;10.00;3.67;;;;;;;;;;5026448;28;20053;-65
2022/05/04 06:40:20;;;;;;;11.93;3.20;;;;;;;;;;5022682;28;20043;-65
2022/05/04 06:42:47;;;;;;;14.88;3.58;;;;;;;;;;5021691;28;20049;-65
2022/05/04 06:45:13;;;;;;;9.20;3.20;;;;;;;;;;5034441;28;20446;-65
2022/05/04 06:47:39;;;;;;;9.90;2.67;;;;;;;;;;5011252;28;20119;-65
2022/05/04 06:50:05;;;;;;;9.45;2.88;;;;;;;;;;5022087;28;20086;-65
2022/05/04 06:52:34;;;;;;;6.78;2.95;;;;;;;;;;5039379;28;20147;-65
2022/05/04 06:55:00;;;;;;;8.77;2.88;;;;;;;;;;5035348;28;20132;-65
2022/05/04 06:57:26;;;;;;;10.95;3.00;;;;;;;;;;5019450;28;20155;-65
2022/05/04 06:59:52;;;;;;;10.68;3.40;;;;;;;;;;5023400;28;20095;-65
2022/05/04 07:02:18;;;;;;;10.30;2.72;;;;;;;;;;5021267;28;20037;-65
2022/05/04 07:04:45;;;;;;;9.48;2.90;;;;;;;;;;5026887;28;20040;-66
2022/05/04 07:07:11;;;;;;;10.63;3.35;;;;;;;;;;5026018;28;20417;-65
2022/05/04 07:09:37;;;;;;;12.10;3.40;;;;;;;;;;5033762;28;20108;-65
2022/05/04 07:12:03;;;;;;;11.75;3.33;;;;;;;;;;5035257;28;20037;-64
2022/05/04 07:14:29;;;;;;;12.23;3.13;;;;;;;;;;5027907;28;20036;-64
2022/05/04 07:16:55;;;;;;;10.55;3.53;;;;;;;;;;5044996;28;20040;-64
2022/05/04 07:19:22;;;;;;;12.25;3.08;;;;;;;;;;5027709;28;20458;-65
2022/05/04 07:21:48;;;;;;;8.93;2.90;;;;;;;;;;5019283;28;20389;-65
2022/05/04 07:24:14;;;;;;;8.40;3.38;;;;;;;;;;5016671;28;20051;-65
2022/05/04 07:26:43;;;;;;;10.32;3.10;;;;;;;;;;5015081;28;20048;-64
2022/05/04 07:29:09;;;;;;;9.63;2.92;;;;;;;;;;5022792;28;20401;-64
2022/05/04 07:31:36;;;;;;;8.07;2.53;;;;;;;;;;5043539;28;20037;-65
2022/05/04 07:34:03;;;;;;;11.00;3.22;;;;;;;;;;5041185;28;20073;-65
2022/05/04 07:36:29;;;;;;;10.20;2.85;;;;;;;;;;5026653;28;20080;-65
2022/05/04 07:38:55;;;;;;;7.25;2.60;;;;;;;;;;5028943;28;20076;-65
2022/05/04 07:44:06;;;;;;;11.85;3.78;;;;;;;;;;5017987;28;20049;-65
2022/05/04 07:46:33;;;;;;;14.55;2.88;;;;;;;;;;5024657;28;20053;-65
2022/05/04 07:48:59;;;;;;;6.97;2.50;;;;;;;;;;5039964;28;20048;-65
2022/05/04 07:51:25;;;;;;;9.55;2.90;;;;;;;;;;5038150;28;20396;-65
2022/05/04 07:53:51;;;;;;;9.43;2.85;;;;;;;;;;5025658;28;20037;-66
2022/05/04 07:56:17;;;;;;;9.93;2.90;;;;;;;;;;5039001;28;20559;-66
2022/05/04 07:58:44;;;;;;;7.97;2.92;;;;;;;;;;5020858;28;20052;-66
2022/05/04 08:04:27;;;;;;;10.85;3.25;;;;;;;;;;5029008;28;20079;-65
2022/05/04 08:06:46;;;;;;;12.30;3.17;;;;;;;;;;5014422;28;20050;-65
2022/05/04 08:09:13;;;;;;;9.93;2.85;;;;;;;;;;5039199;28;20040;-65
2022/05/04 08:11:39;;;;;;;8.40;2.60;;;;;;;;;;5034039;28;20037;-65
2022/05/04 08:14:05;;;;;;;10.77;3.05;;;;;;;;;;5040784;28;20514;-65
2022/05/04 08:16:31;;;;;;;10.63;2.70;;;;;;;;;;5034008;28;20128;-65
2022/05/04 08:18:59;;;;;;;13.55;2.85;;;;;;;;;;5025001;28;20428;-65
2022/05/04 08:21:25;;;;;;;9.45;2.33;;;;;;;;;;5037974;28;20052;-65
2022/05/04 08:23:51;;;;;;;10.98;3.10;;;;;;;;;;5017800;28;20044;-66
2022/05/04 08:26:17;;;;;;;10.63;2.83;;;;;;;;;;5023770;28;20072;-66
2022/05/04 08:28:43;;;;;;;12.52;3.05;;;;;;;;;;5022752;28;20033;-65
2022/05/04 08:31:09;;;;;;;10.10;3.08;;;;;;;;;;5018530;28;20103;-65
2022/05/04 08:33:35;;;;;;;9.52;2.70;;;;;;;;;;5016808;28;20140;-65
2022/05/04 08:36:01;;;;;;;15.63;2.88;;;;;;;;;;5018087;28;20048;-66
2022/05/04 08:38:27;;;;;;;7.13;2.15;;;;;;;;;;5005376;28;20060;-66
2022/05/04 08:40:55;;;;;;;7.97;2.40;;;;;;;;;;5038802;28;20116;-66
2022/05/04 08:43:24;;;;;;;8.35;2.35;;;;;;;;;;5017952;28;20417;-65
2022/05/04 08:45:53;;;;;;;8.60;2.70;;;;;;;;;;5037257;28;20037;-65
2022/05/04 08:48:21;;;;;;;12.48;3.00;;;;;;;;;;5042604;28;20091;-65
2022/05/04 08:50:47;;;;;;;6.03;2.13;;;;;;;;;;5041306;28;20053;-65
2022/05/04 08:53:14;;;;;;;11.40;2.63;;;;;;;;;;5018209;28;20123;-66
2022/05/04 08:55:41;;;;;;;6.05;2.42;;;;;;;;;;5017992;28;20053;-66
2022/05/04 08:58:07;;;;;;;7.93;2.30;;;;;;;;;;5039540;28;20396;-65
2022/05/04 09:00:33;;;;;;;11.85;2.85;;;;;;;;;;5022698;28;20041;-66
2022/05/04 09:03:00;;;;;;;9.10;2.97;;;;;;;;;;5036361;28;20552;-66
2022/05/04 09:05:27;;;;;;;8.38;2.95;;;;;;;;;;5018067;28;20444;-66
2022/05/04 09:07:58;;;;;;;8.73;3.13;;;;;;;;;;5023221;28;20083;-66
2022/05/04 09:10:26;;;;;;;11.35;2.85;;;;;;;;;;5009795;28;20045;-66
2022/05/04 09:12:54;;;;;;;8.27;2.40;;;;;;;;;;5040156;28;20038;-66
2022/05/04 09:15:27;;;;;;;7.43;2.70;;;;;;;;;;5024137;28;20041;-66
2022/05/04 09:18:00;;;;;;;14.10;2.83;;;;;;;;;;5038765;28;20378;-66
2022/05/04 09:20:49;;;;;;;8.05;2.58;;;;;;;;;;5022573;28;20072;-65
2022/05/04 09:23:18;;;;;;;7.80;2.60;;;;;;;;;;5039559;28;20135;-65
2022/05/04 09:25:45;;;;;;;8.77;2.80;;;;;;;;;;5029718;28;20124;-66
2022/05/04 09:28:12;;;;;;;9.18;2.70;;;;;;;;;;5022791;28;20103;-66
2022/05/04 09:30:51;;;;;;;14.35;2.88;;;;;;;;;;4990960;28;20040;-66
2022/05/04 09:33:27;;;;;;;7.55;2.75;;;;;;;;;;5034409;28;20140;-66
2022/05/04 09:35:54;;;;;;;7.85;2.72;;;;;;;;;;5023996;28;20405;-65
2022/05/04 09:46:39;;;;;;;12.30;3.20;;;;;;;;;;5037155;28;20371;-65
2022/05/04 09:49:33;;;;;;;6.82;2.67;;;;;;;;;;5038121;28;20048;-65
2022/05/04 09:52:04;;;;;;;10.98;3.00;;;;;;;;;;5017594;28;20057;-65
2022/05/04 09:54:30;;;;;;;7.43;2.72;;;;;;;;;;5045648;28;20416;-65
2022/05/04 09:56:59;;;;;;;10.52;2.60;;;;;;;;;;5026734;28;20045;-66
2022/05/04 09:59:26;;;;;;;7.47;2.75;;;;;;;;;;5040957;28;20102;-65
2022/05/04 10:01:53;;;;;;;6.30;2.42;;;;;;;;;;5047545;28;20041;-66
2022/05/04 10:04:20;;;;;;;7.93;2.60;;;;;;;;;;5041224;28;20075;-66
2022/05/04 10:06:50;;;;;;;10.80;3.05;;;;;;;;;;5017963;28;20096;-65
2022/05/04 10:09:16;;;;;;;6.93;2.60;;;;;;;;;;5009596;28;20041;-65
2022/05/04 10:11:42;;;;;;;6.25;2.90;;;;;;;;;;5019375;28;20094;-65
2022/05/04 10:14:10;;;;;;;8.27;2.90;;;;;;;;;;5030461;28;20040;-66
2022/05/04 10:16:44;;;;;;;7.68;3.08;;;;;;;;;;5021533;28;20037;-66
2022/05/04 10:19:19;;;;;;;13.25;2.95;;;;;;;;;;5026062;28;20107;-66
2022/05/04 10:21:49;;;;;;;8.02;2.97;;;;;;;;;;5039937;28;20045;-66
2022/05/04 10:24:17;;;;;;;8.90;3.13;;;;;;;;;;5016988;28;20076;-66
2022/05/04 10:26:45;;;;;;;9.27;2.97;;;;;;;;;;4999074;28;20121;-66
2022/05/04 10:32:08;;;;;;;8.93;2.88;;;;;;;;;;5043051;28;20053;-65
2022/05/04 10:34:40;;;;;;;10.07;3.42;;;;;;;;;;5024853;28;20037;-65
2022/05/04 10:37:07;;;;;;;8.10;3.03;;;;;;;;;;5034846;28;20120;-65
2022/05/04 10:39:33;;;;;;;7.57;2.72;;;;;;;;;;5038624;28;20496;-65
2022/05/04 10:42:01;;;;;;;9.25;3.00;;;;;;;;;;5036275;28;20124;-65
2022/05/04 10:44:45;;;;;;;9.52;2.90;;;;;;;;;;5047248;28;20108;-65
2022/05/04 10:47:17;;;;;;;6.43;2.63;;;;;;;;;;5020312;28;20044;-65
2022/05/04 10:49:44;;;;;;;8.13;3.08;;;;;;;;;;5030670;28;20060;-65
2022/05/04 10:52:10;;;;;;;8.15;3.00;;;;;;;;;;5039977;28;20128;-65
2022/05/04 10:54:46;;;;;;;10.45;2.90;;;;;;;;;;5044253;28;20099;-65
2022/05/04 10:57:14;;;;;;;14.90;3.35;;;;;;;;;;5021333;28;20128;-65
2022/05/04 10:59:40;;;;;;;9.77;2.90;;;;;;;;;;5033933;28;20047;-66
2022/05/04 11:02:10;;;;;;;11.77;3.63;;;;;;;;;;5041489;28;20042;-65
2022/05/04 11:04:37;;;;;;;9.57;3.40;;;;;;;;;;5025390;28;20085;-66
2022/05/04 11:07:03;;;;;;;9.38;3.25;;;;;;;;;;5016395;28;20503;-65
2022/05/04 11:09:33;;;;;;;6.82;2.90;;;;;;;;;;5040946;28;20497;-65
2022/05/04 11:12:04;;;;;;;10.77;2.97;;;;;;;;;;5026615;28;20052;-65
2022/05/04 11:14:33;;;;;;;7.60;2.95;;;;;;;;;;5047917;28;20094;-65
2022/05/04 11:17:00;;;;;;;9.77;3.28;;;;;;;;;;5039200;28;20117;-65
2022/05/04 11:19:27;;;;;;;8.38;2.92;;;;;;;;;;5025487;28;20073;-64
2022/05/04 11:21:56;;;;;;;8.57;2.90;;;;;;;;;;5039590;28;20048;-65
2022/05/04 11:24:25;;;;;;;8.45;3.00;;;;;;;;;;5030299;28;20044;-65
2022/05/04 11:26:52;;;;;;;10.57;3.15;;;;;;;;;;5041420;28;20049;-65
2022/05/04 11:29:23;;;;;;;7.53;3.00;;;;;;;;;;5023338;28;20045;-65
2022/05/04 11:31:56;;;;;;;5.85;2.65;;;;;;;;;;5032936;28;20398;-65
2022/05/04 11:34:23;;;;;;;6.65;3.20;;;;;;;;;;5016286;28;20069;-65
2022/05/04 11:36:49;;;;;;;12.45;2.78;;;;;;;;;;5039754;28;20041;-65
2022/05/04 11:39:23;;;;;;;7.30;2.65;;;;;;;;;;5034622;28;20042;-65
2022/05/04 11:41:50;;;;;;;8.60;2.70;;;;;;;;;;5022252;28;20370;-65
2022/05/04 11:44:21;;;;;;;6.47;2.55;;;;;;;;;;5022428;28;20033;-65
2022/05/04 11:46:48;;;;;;;9.23;2.80;;;;;;;;;;5022312;28;20394;-65
2022/05/04 11:49:14;;;;;;;14.57;3.42;;;;;;;;;;5010132;28;20048;-65
2022/05/04 11:51:41;;;;;;;9.57;2.95;;;;;;;;;;5019195;28;20410;-61
2022/05/04 11:54:08;;;;;;;10.20;2.92;;;;;;;;;;5026063;28;20044;-62
2022/05/04 11:56:34;;;;;;;10.27;3.05;;;;;;;;;;5037924;28;20489;-62
2022/05/04 11:59:01;;;;;;;7.25;3.20;;;;;;;;;;5046632;28;20052;-61
2022/05/04 12:01:27;;;;;;;7.13;2.80;;;;;;;;;;5022573;28;20507;-62
2022/05/04 12:03:53;;;;;;;12.73;3.40;;;;;;;;;;5019384;28;20044;-61
2022/05/04 12:06:20;;;;;;;10.90;2.92;;;;;;;;;;5017427;28;20393;-61
2022/05/04 12:08:46;;;;;;;10.02;3.00;;;;;;;;;;5038976;28;20130;-61
2022/05/04 12:11:12;;;;;;;7.45;3.00;;;;;;;;;;5037211;28;20077;-61
2022/05/04 12:13:40;;;;;;;8.93;3.55;;;;;;;;;;5043038;28;20049;-62
2022/05/04 12:16:08;;;;;;;6.63;3.10;;;;;;;;;;5016978;28;20371;-62
2022/05/04 12:18:35;;;;;;;7.72;2.50;;;;;;;;;;5042313;28;20037;-61
2022/05/04 12:21:08;;;;;;;9.52;3.63;;;;;;;;;;5018239;28;20386;-61
2022/05/04 12:23:35;;;;;;;8.73;2.95;;;;;;;;;;5023287;28;20574;-61
2022/05/04 12:26:02;;;;;;;10.60;3.30;;;;;;;;;;5006035;28;20096;-62
2022/05/04 12:28:28;;;;;;;9.68;3.65;;;;;;;;;;5020055;28;20064;-62
2022/05/04 12:33:39;;;;;;;7.43;2.90;;;;;;;;;;5033896;28;20056;-61
2022/05/04 12:36:07;;;;;;;8.18;2.80;;;;;;;;;;5033459;28;20456;-61
2022/05/04 12:38:34;;;;;;;7.45;3.35;;;;;;;;;;5013541;28;20129;-61
2022/05/04 12:41:01;;;;;;;5.78;3.10;;;;;;;;;;5023992;28;20099;-61
2022/05/04 12:43:30;;;;;;;8.70;3.33;;;;;;;;;;5018133;28;20033;-61
2022/05/04 12:45:57;;;;;;;9.52;3.20;;;;;;;;;;5024482;28;20118;-61
2022/05/04 12:48:25;;;;;;;10.65;3.50;;;;;;;;;;5019447;28;20042;-61
2022/05/04 12:50:53;;;;;;;7.45;3.08;;;;;;;;;;5034231;28;20129;-61
2022/05/04 12:53:19;;;;;;;9.57;3.72;;;;;;;;;;5035348;28;20038;-61
2022/05/04 12:58:30;;;;;;;9.88;3.40;;;;;;;;;;5023113;28;20397;-61
2022/05/04 13:00:56;;;;;;;11.57;3.30;;;;;;;;;;5005691;28;20037;-61
2022/05/04 13:03:22;;;;;;;7.53;3.50;;;;;;;;;;5031307;28;20044;-61
2022/05/04 13:05:48;;;;;;;8.30;3.42;;;;;;;;;;5019374;28;20098;-62
2022/05/04 13:08:14;;;;;;;6.20;3.55;;;;;;;;;;5017048;28;20037;-61
2022/05/04 13:10:41;;;;;;;8.70;3.50;;;;;;;;;;5042661;28;20083;-61
2022/05/04 13:13:07;;;;;;;8.80;3.22;;;;;;;;;;5039911;28;20045;-61
2022/05/04 13:15:33;;;;;;;10.65;3.60;;;;;;;;;;5041942;28;20098;-62
2022/05/04 13:18:00;;;;;;;9.75;3.65;;;;;;;;;;5044793;28;20090;-62
2022/05/04 13:20:26;;;;;;;9.68;3.90;;;;;;;;;;5021382;28;20068;-61
2022/05/04 13:22:52;;;;;;;6.75;3.10;;;;;;;;;;5021815;28;20049;-62
2022/05/04 13:25:18;;;;;;;9.25;3.42;;;;;;;;;;5040793;28;20389;-61
2022/05/04 13:27:46;;;;;;;11.75;3.45;;;;;;;;;;5027662;28;20092;-62
2022/05/04 13:30:12;;;;;;;10.70;3.33;;;;;;;;;;5041308;28;20063;-61
2022/05/04 13:32:38;;;;;;;16.75;3.78;;;;;;;;;;5025465;28;20061;-61
2022/05/04 13:35:04;;;;;;;12.43;3.65;;;;;;;;;;5027454;28;20124;-62
2022/05/04 13:37:30;;;;;;;9.48;3.80;;;;;;;;;;5030052;28;20069;-61
2022/05/04 13:39:57;;;;;;;6.20;3.38;;;;;;;;;;5024471;28;20048;-61
2022/05/04 13:42:23;;;;;;;9.38;3.40;;;;;;;;;;5044516;28;20033;-61
2022/05/04 13:44:49;;;;;;;8.13;3.35;;;;;;;;;;5024473;28;20042;-61
2022/05/04 13:47:15;;;;;;;10.23;3.83;;;;;;;;;;5017326;28;20395;-61
2022/05/04 13:49:41;;;;;;;10.32;3.58;;;;;;;;;;5025245;28;20400;-60
2022/05/04 13:54:52;;;;;;;7.25;3.08;;;;;;;;;;5039364;28;20045;-62
2022/05/04 13:57:18;;;;;;;10.25;3.22;;;;;;;;;;5035421;28;20046;-62
2022/05/04 13:59:44;;;;;;;6.57;3.30;;;;;;;;;;5037522;28;20547;-61
2022/05/04 14:02:10;;;;;;;9.20;3.28;;;;;;;;;;5034279;28;20374;-61
2022/05/04 14:04:37;;;;;;;42.35;4.15;;;;;;;;;;5022946;28;20124;-61
2022/05/04 14:07:03;;;;;;;13.18;3.85;;;;;;;;;;5039854;28;20048;-62
2022/05/04 14:09:31;;;;;;;8.13;3.42;;;;;;;;;;5044517;28;20049;-62
2022/05/04 14:11:57;;;;;;;7.53;3.25;;;;;;;;;;5022169;28;20041;-62
2022/05/04 14:17:08;;;;;;;7.75;3.10;;;;;;;;;;5038406;28;20505;-61
2022/05/04 14:19:34;;;;;;;10.77;3.50;;;;;;;;;;5038570;28;20069;-62
2022/05/04 14:22:00;;;;;;;10.63;3.45;;;;;;;;;;5038637;28;20091;-63
2022/05/04 14:24:26;;;;;;;7.65;3.58;;;;;;;;;;5039276;28;20033;-62
2022/05/04 14:26:52;;;;;;;13.10;3.92;;;;;;;;;;4999959;28;20049;-61
2022/05/04 14:29:19;;;;;;;13.85;3.50;;;;;;;;;;5019029;28;20037;-62
2022/05/04 14:31:46;;;;;;;6.68;3.65;;;;;;;;;;5033026;28;20052;-62
2022/05/04 14:34:12;;;;;;;9.13;3.75;;;;;;;;;;5042181;28;20057;-61
2022/05/04 14:36:38;;;;;;;6.43;3.58;;;;;;;;;;5037031;28;20414;-61
2022/05/04 14:39:04;;;;;;;7.88;3.53;;;;;;;;;;5014990;28;20038;-64
2022/05/04 14:41:30;;;;;;;8.75;3.55;;;;;;;;;;5044032;28;20061;-66
2022/05/04 14:43:56;;;;;;;8.32;3.08;;;;;;;;;;5034868;28;20051;-66
2022/05/04 14:46:23;;;;;;;5.50;3.13;;;;;;;;;;5020511;28;20077;-65
2022/05/04 14:48:49;;;;;;;9.95;3.97;;;;;;;;;;5040015;28;20037;-65
2022/05/04 14:51:15;;;;;;;9.13;3.50;;;;;;;;;;5040227;28;20041;-65
2022/05/04 14:53:46;;;;;;;22.58;3.92;;;;;;;;;;5024159;28;20598;-65
2022/05/04 14:56:12;;;;;;;33.03;4.22;;;;;;;;;;5026109;28;20053;-65
2022/05/04 14:58:38;;;;;;;12.48;3.70;;;;;;;;;;5025725;28;20052;-65
2022/05/04 15:01:04;;;;;;;8.82;3.58;;;;;;;;;;5017266;28;20086;-66
2022/05/04 15:06:15;;;;;;;7.25;3.40;;;;;;;;;;5033391;28;20116;-66
2022/05/04 15:08:41;;;;;;;8.43;3.40;;;;;;;;;;5040285;28;20041;-66
2022/05/04 15:11:07;;;;;;;8.68;3.28;;;;;;;;;;5018857;28;20091;-66
2022/05/04 15:13:33;;;;;;;9.02;3.03;;;;;;;;;;5025159;28;20401;-66
2022/05/04 15:15:59;;;;;;;7.28;3.17;;;;;;;;;;5034455;28;20384;-66
2022/05/04 15:18:25;;;;;;;7.53;3.05;;;;;;;;;;5031313;28;20060;-66
2022/05/04 15:20:52;;;;;;;11.32;3.53;;;;;;;;;;5039643;28;20065;-66
2022/05/04 15:23:18;;;;;;;9.52;3.50;;;;;;;;;;5016619;28;20051;-66